Time;durP1;ratioP1;P1;durP2;ratioP2;P2;SDS_P1;SDS_P2;PMS_P1;PMS_P2;Temp;Humidity;BMP_temperature;BMP_pressure;BME280_temperature;BME280_humidity;BME280_pressure;Samples;Min_cycle;Max_cycle;Signal;HPM_P1;HPM_P2
2022/02/14 00:00:25;;;;;;;6.45;3.05;;;;;;;4.63;51.69;95946.72;2067747;28;20570;-64
2022/02/14 00:01:30;;;;;;;6.97;3.40;;;;;;;4.53;52.58;95944.63;2065940;28;20249;-65
2022/02/14 00:02:31;;;;;;;5.05;3.17;;;;;;;4.51;52.66;95941.28;2067042;28;20198;-65
2022/02/14 00:03:33;;;;;;;7.32;3.38;;;;;;;4.49;52.36;95934.53;2070676;28;20205;-65
2022/02/14 00:04:34;;;;;;;7.55;3.17;;;;;;;4.54;52.40;95941.09;2069510;28;20222;-65
2022/02/14 00:05:36;;;;;;;10.30;3.30;;;;;;;4.44;52.83;95928.75;2065511;28;20205;-65
2022/02/14 00:06:37;;;;;;;6.72;3.75;;;;;;;4.46;53.04;95926.91;2069191;28;20198;-65
2022/02/14 00:07:39;;;;;;;5.82;3.30;;;;;;;4.48;52.70;95933.66;2064510;28;20241;-65
2022/02/14 00:08:42;;;;;;;6.68;3.35;;;;;;;4.42;52.63;95925.41;2064459;28;20198;-65
2022/02/14 00:09:46;;;;;;;6.18;2.90;;;;;;;4.47;52.06;95936.34;2065476;28;20757;-65
2022/02/14 00:10:48;;;;;;;7.45;3.35;;;;;;;4.49;52.02;95929.34;2066849;28;20198;-65
2022/02/14 00:11:50;;;;;;;7.18;3.05;;;;;;;4.49;51.90;95921.56;2064419;28;20296;-65
2022/02/14 00:12:53;;;;;;;9.93;2.78;;;;;;;4.52;51.72;95937.75;2068691;28;20214;-65
2022/02/14 00:13:54;;;;;;;7.30;3.65;;;;;;;4.58;51.40;95930.56;2058308;28;20199;-64
2022/02/14 00:14:56;;;;;;;7.50;2.92;;;;;;;4.65;50.08;95918.94;2059369;28;20194;-65
2022/02/14 00:15:57;;;;;;;5.47;3.22;;;;;;;4.64;50.52;95919.84;2071765;28;20202;-65
2022/02/14 00:16:59;;;;;;;6.43;3.00;;;;;;;4.64;50.57;95919.84;2065158;28;20190;-65
2022/02/14 00:18:00;;;;;;;9.18;2.78;;;;;;;4.67;51.26;95925.72;2066309;28;20193;-65
2022/02/14 00:19:02;;;;;;;6.25;2.95;;;;;;;4.63;50.65;95918.19;2068542;28;20202;-65
2022/02/14 00:20:04;;;;;;;4.32;2.65;;;;;;;4.60;50.70;95919.19;2070787;28;20676;-65
2022/02/14 00:21:06;;;;;;;5.25;3.10;;;;;;;4.63;50.96;95915.59;2070140;28;20198;-65
2022/02/14 00:22:07;;;;;;;5.75;2.47;;;;;;;4.57;51.01;95916.78;2069662;28;20559;-65
2022/02/14 00:23:09;;;;;;;6.72;3.42;;;;;;;4.67;50.30;95915.34;2067051;28;20202;-65
2022/02/14 00:24:11;;;;;;;7.30;3.38;;;;;;;4.62;50.69;95913.91;2066225;28;20225;-64
2022/02/14 00:25:13;;;;;;;3.53;2.40;;;;;;;4.62;50.59;95913.91;2066157;28;20206;-65
2022/02/14 00:26:15;;;;;;;6.35;2.78;;;;;;;4.57;50.58;95903.81;2067005;28;20197;-65
2022/02/14 00:27:18;;;;;;;8.43;2.40;;;;;;;4.48;50.93;95886.16;2067448;28;20255;-65
2022/02/14 00:28:19;;;;;;;7.03;2.65;;;;;;;4.52;51.14;95900.63;2066755;28;20209;-65
2022/02/14 00:29:21;;;;;;;7.80;3.35;;;;;;;4.59;51.20;95904.56;2062482;28;20234;-65
2022/02/14 00:30:23;;;;;;;5.90;2.75;;;;;;;4.67;50.59;95904.13;2066755;28;20199;-65
2022/02/14 00:31:24;;;;;;;4.55;2.88;;;;;;;4.63;50.70;95897.44;2069252;28;20206;-65
2022/02/14 00:32:26;;;;;;;7.25;2.90;;;;;;;4.62;50.50;95896.59;2069508;28;20198;-65
2022/02/14 00:33:28;;;;;;;5.60;3.30;;;;;;;4.58;51.11;95897.69;2069876;28;20220;-65
2022/02/14 00:34:29;;;;;;;11.05;3.13;;;;;;;4.56;50.67;95883.97;2067674;28;20225;-65
2022/02/14 00:35:31;;;;;;;7.28;2.55;;;;;;;4.60;50.50;95898.44;2066209;28;20194;-64
2022/02/14 00:36:34;;;;;;;4.38;2.90;;;;;;;4.64;49.83;95880.94;2068643;28;20202;-65
2022/02/14 00:37:36;;;;;;;5.45;3.20;;;;;;;4.67;50.04;95878.19;2065666;28;20256;-65
2022/02/14 00:38:37;;;;;;;4.93;2.58;;;;;;;4.66;49.62;95869.56;2066957;28;20591;-65
2022/02/14 00:39:40;;;;;;;4.45;2.80;;;;;;;4.69;50.12;95884.94;2067671;28;20712;-65
2022/02/14 00:40:42;;;;;;;4.78;2.70;;;;;;;4.67;49.94;95885.97;2066900;28;20198;-65
2022/02/14 00:41:43;;;;;;;4.15;2.30;;;;;;;4.67;49.68;95870.41;2066219;28;20575;-65
2022/02/14 00:42:45;;;;;;;9.35;2.90;;;;;;;4.52;49.92;95857.38;2065912;28;20194;-65
2022/02/14 00:43:47;;;;;;;5.57;3.50;;;;;;;4.65;49.64;95865.31;2067333;28;20201;-65
2022/02/14 00:44:48;;;;;;;5.28;2.90;;;;;;;4.63;49.75;95866.31;2064018;28;20264;-65
2022/02/14 00:45:50;;;;;;;8.63;3.33;;;;;;;4.53;49.27;95853.03;2066701;28;20194;-65
2022/02/14 00:46:51;;;;;;;5.28;2.53;;;;;;;4.70;49.24;95871.03;2072777;28;20204;-65
2022/02/14 00:47:55;;;;;;;4.90;2.30;;;;;;;4.73;49.63;95873.47;2073970;28;20194;-65
2022/02/14 00:48:57;;;;;;;5.80;2.83;;;;;;;4.73;48.56;95883.84;2066710;28;20199;-65
2022/02/14 00:49:58;;;;;;;7.18;4.63;;;;;;;4.66;48.72;95864.38;2066391;28;20201;-65
2022/02/14 00:51:00;;;;;;;9.55;2.97;;;;;;;4.70;48.89;95873.63;2066876;28;20195;-65
2022/02/14 00:52:02;;;;;;;5.82;2.80;;;;;;;4.70;49.05;95876.22;2066677;28;20194;-65
2022/02/14 00:53:04;;;;;;;5.45;2.40;;;;;;;4.72;48.76;95874.41;2068697;28;20221;-65
2022/02/14 00:54:06;;;;;;;4.03;2.28;;;;;;;4.76;48.37;95867.28;2062902;28;20225;-64
2022/02/14 00:55:13;;;;;;;4.55;2.38;;;;;;;4.61;48.96;95856.03;2064297;28;20206;-66
2022/02/14 00:56:15;;;;;;;9.18;3.50;;;;;;;4.66;48.79;95866.97;2067293;28;20201;-64
2022/02/14 00:57:16;;;;;;;5.88;2.65;;;;;;;4.68;48.83;95869.47;2065029;28;20199;-65
2022/02/14 00:58:18;;;;;;;5.03;2.63;;;;;;;4.69;48.96;95858.19;2067641;28;20198;-65
2022/02/14 00:59:21;;;;;;;4.15;2.45;;;;;;;4.64;48.86;95852.41;2069326;28;20221;-65
2022/02/14 01:00:23;;;;;;;4.03;2.13;;;;;;;4.71;48.54;95851.97;2069926;28;20245;-65
2022/02/14 01:01:24;;;;;;;6.20;3.05;;;;;;;4.72;49.00;95855.41;2065750;28;20194;-65
2022/02/14 01:02:26;;;;;;;5.65;2.88;;;;;;;4.63;49.43;95854.19;2067930;28;20201;-65
2022/02/14 01:03:27;;;;;;;4.22;2.97;;;;;;;4.42;49.48;95829.47;2069393;28;20637;-65
2022/02/14 01:04:29;;;;;;;5.68;2.67;;;;;;;4.54;49.48;95852.09;2067930;28;20613;-65
2022/02/14 01:05:30;;;;;;;5.15;3.30;;;;;;;4.41;49.06;95822.59;2067599;28;20198;-65
2022/02/14 01:06:32;;;;;;;5.53;2.60;;;;;;;4.51;49.17;95834.13;2069250;28;20205;-65
2022/02/14 01:07:34;;;;;;;5.80;2.90;;;;;;;4.67;48.48;95857.44;2068617;28;20562;-65
2022/02/14 01:08:35;;;;;;;5.97;2.80;;;;;;;4.66;48.71;95845.38;2068275;28;20190;-65
2022/02/14 01:09:36;;;;;;;4.55;2.65;;;;;;;4.63;49.26;95848.16;2068786;28;20284;-65
2022/02/14 01:10:38;;;;;;;5.95;2.22;;;;;;;4.47;49.72;95830.88;2066505;28;20193;-65
2022/02/14 01:11:40;;;;;;;6.93;3.08;;;;;;;4.52;49.22;95844.41;2066181;28;20202;-65
2022/02/14 01:12:47;;;;;;;6.35;3.05;;;;;;;4.55;48.92;95853.78;2058544;28;20297;-65
2022/02/14 01:13:49;;;;;;;8.75;2.92;;;;;;;4.51;49.38;95834.13;2060416;28;20628;-65
2022/02/14 01:14:51;;;;;;;6.30;3.05;;;;;;;4.50;48.61;95835.88;2064500;28;20214;-65
2022/02/14 01:15:52;;;;;;;5.65;2.60;;;;;;;4.60;48.38;95841.38;2064166;28;20238;-65
2022/02/14 01:16:57;;;;;;;5.70;2.70;;;;;;;4.64;48.67;95855.00;2064581;28;20749;-65
2022/02/14 01:17:58;;;;;;;10.23;3.10;;;;;;;4.67;48.24;95844.47;2066265;28;20201;-65
2022/02/14 01:19:01;;;;;;;8.13;2.67;;;;;;;4.68;48.30;95846.94;2062536;28;20289;-64
2022/02/14 01:20:07;;;;;;;10.50;2.85;;;;;;;4.78;47.63;95849.03;2062159;28;20256;-65
2022/02/14 01:21:09;;;;;;;5.20;2.83;;;;;;;4.68;48.37;95843.53;2063606;28;20201;-65
2022/02/14 01:22:11;;;;;;;4.15;2.63;;;;;;;4.68;48.23;95835.75;2057560;28;20207;-64
2022/02/14 01:23:12;;;;;;;6.03;3.13;;;;;;;4.63;48.74;95842.97;2065389;28;20653;-65
2022/02/14 01:24:14;;;;;;;5.50;2.72;;;;;;;4.63;48.25;95823.06;2067693;28;20259;-65
2022/02/14 01:25:15;;;;;;;6.22;2.95;;;;;;;4.59;48.39;95829.34;2068490;28;20221;-65
2022/02/14 01:26:17;;;;;;;5.70;2.60;;;;;;;4.63;48.28;95845.56;2068490;28;20602;-65
2022/02/14 01:27:18;;;;;;;4.05;2.22;;;;;;;4.62;48.05;95836.94;2066556;28;20260;-65
2022/02/14 01:28:19;;;;;;;3.53;2.90;;;;;;;4.63;47.60;95845.56;2064760;28;20206;-64
2022/02/14 01:29:21;;;;;;;6.50;2.40;;;;;;;4.75;47.33;95840.50;2066336;28;20221;-64
2022/02/14 01:30:23;;;;;;;8.07;2.50;;;;;;;4.71;46.87;95823.44;2064044;28;20205;-65
2022/02/14 01:31:24;;;;;;;4.30;2.17;;;;;;;4.74;47.33;95832.81;2067103;28;20237;-65
2022/02/14 01:32:26;;;;;;;4.47;2.55;;;;;;;4.59;47.49;95837.13;2067465;28;20556;-65
2022/02/14 01:33:29;;;;;;;5.45;3.05;;;;;;;4.67;46.84;95831.50;2067184;28;20202;-64
2022/02/14 01:34:31;;;;;;;6.07;2.70;;;;;;;4.62;47.26;95828.31;2065333;28;20226;-64
2022/02/14 01:35:33;;;;;;;4.93;1.90;;;;;;;4.64;47.09;95829.06;2068904;28;20645;-65
2022/02/14 01:36:34;;;;;;;7.28;2.80;;;;;;;4.67;46.77;95834.09;2069323;28;20205;-64
2022/02/14 01:37:39;;;;;;;4.28;2.30;;;;;;;4.70;46.98;95826.13;2066447;28;20198;-65
2022/02/14 01:38:40;;;;;;;10.02;2.65;;;;;;;4.74;45.68;95828.47;2065879;28;20226;-65
2022/02/14 01:39:42;;;;;;;4.50;2.10;;;;;;;4.48;46.04;95793.63;2068297;28;20225;-65
2022/02/14 01:40:44;;;;;;;8.10;2.58;;;;;;;4.68;45.84;95815.00;2065387;28;20208;-64
2022/02/14 01:41:45;;;;;;;5.03;2.50;;;;;;;4.68;45.55;95818.41;2062452;28;20520;-64
2022/02/14 01:42:47;;;;;;;3.40;2.10;;;;;;;4.63;46.54;95819.63;2063237;28;20271;-65
2022/02/14 01:43:49;;;;;;;6.15;2.30;;;;;;;4.59;46.73;95826.75;2065451;28;20225;-65
2022/02/14 01:44:52;;;;;;;2.80;2.00;;;;;;;4.68;45.87;95820.19;2068690;28;20603;-65
2022/02/14 01:45:54;;;;;;;4.90;2.15;;;;;;;4.69;45.96;95820.09;2067813;28;20320;-65
2022/02/14 01:46:55;;;;;;;5.15;2.15;;;;;;;4.65;45.48;95791.84;2066776;28;20226;-65
2022/02/14 01:47:57;;;;;;;5.70;2.30;;;;;;;4.69;45.51;95820.09;2065798;28;20198;-65
2022/02/14 01:48:59;;;;;;;7.57;2.47;;;;;;;4.67;44.29;95798.63;2066081;28;20202;-65
2022/02/14 01:50:02;;;;;;;4.32;2.13;;;;;;;4.72;44.84;95819.09;2068772;28;20744;-65
2022/02/14 01:51:04;;;;;;;4.50;2.13;;;;;;;4.73;44.74;95811.22;2070262;28;20198;-64
2022/02/14 01:52:06;;;;;;;8.23;3.22;;;;;;;4.69;44.93;95811.50;2065787;28;20195;-64
2022/02/14 01:53:09;;;;;;;2.33;1.65;;;;;;;4.71;45.20;95815.66;2067413;28;20209;-64
2022/02/14 01:54:10;;;;;;;3.40;2.17;;;;;;;4.75;44.39;95805.94;2069138;28;20256;-64
2022/02/14 01:55:14;;;;;;;3.50;2.15;;;;;;;4.73;44.39;95810.41;2069747;28;20193;-64
2022/02/14 01:56:15;;;;;;;3.80;2.33;;;;;;;4.83;45.02;95806.34;2063736;28;20203;-64
2022/02/14 01:57:19;;;;;;;5.90;2.88;;;;;;;4.69;45.20;95814.09;2057504;28;20207;-64
2022/02/14 01:58:21;;;;;;;5.97;2.60;;;;;;;4.66;44.38;95802.13;2058078;28;20206;-64
2022/02/14 01:59:22;;;;;;;6.70;2.25;;;;;;;4.75;44.63;95799.00;2065717;28;20232;-64
2022/02/14 02:00:25;;;;;;;5.75;2.20;;;;;;;4.66;44.98;95799.53;2067769;28;20211;-64
2022/02/14 02:01:27;;;;;;;3.25;2.15;;;;;;;4.70;44.86;95802.78;2067869;28;20203;-64
2022/02/14 02:02:28;;;;;;;4.05;2.45;;;;;;;4.64;45.59;95803.97;2068490;28;20677;-64
2022/02/14 02:03:30;;;;;;;6.40;2.08;;;;;;;4.59;45.20;95805.16;2068227;28;20225;-64
2022/02/14 02:04:31;;;;;;;3.45;2.10;;;;;;;4.60;44.61;95801.66;2067478;28;20627;-64
2022/02/14 02:05:33;;;;;;;11.93;2.88;;;;;;;4.64;45.21;95806.56;2067521;28;20214;-64
2022/02/14 02:06:34;;;;;;;2.38;1.65;;;;;;;4.71;45.51;95794.91;2066943;28;20235;-64
2022/02/14 02:07:36;;;;;;;3.90;2.22;;;;;;;4.68;44.79;95804.63;2065839;28;20202;-64
2022/02/14 02:08:38;;;;;;;8.23;1.88;;;;;;;4.75;44.70;95799.00;2066420;28;20209;-64
2022/02/14 02:09:43;;;;;;;6.53;2.25;;;;;;;4.78;44.13;95797.97;2066138;28;20225;-64
2022/02/14 02:10:44;;;;;;;5.47;2.35;;;;;;;4.73;44.18;95785.28;2066255;28;20210;-64
2022/02/14 02:13:06;;;;;;;4.43;2.38;;;;;;;4.70;44.54;95795.00;2067982;28;20521;-64
2022/02/14 02:14:07;;;;;;;4.53;1.65;;;;;;;4.74;44.46;95791.28;2066349;28;20678;-64
2022/02/14 02:15:10;;;;;;;3.65;1.90;;;;;;;4.68;44.75;95794.25;2070735;28;20205;-64
2022/02/14 02:16:14;;;;;;;5.93;2.10;;;;;;;4.66;44.79;95791.75;2067556;28;20199;-64
2022/02/14 02:17:15;;;;;;;3.78;2.00;;;;;;;4.59;44.70;95779.22;2067624;28;20198;-64
2022/02/14 02:18:17;;;;;;;3.88;1.92;;;;;;;4.70;44.66;95780.25;2068229;28;20208;-65
2022/02/14 02:19:18;;;;;;;3.20;2.10;;;;;;;4.75;44.91;95783.44;2066302;28;20225;-64
2022/02/14 02:20:20;;;;;;;4.05;2.20;;;;;;;4.69;44.52;95783.78;2068061;28;20224;-64
2022/02/14 02:21:22;;;;;;;7.50;2.20;;;;;;;4.65;44.68;95781.47;2060813;28;20644;-64
2022/02/14 02:22:24;;;;;;;5.85;2.28;;;;;;;4.68;45.04;95776.91;2059252;28;20202;-65
2022/02/14 02:23:25;;;;;;;4.43;2.28;;;;;;;4.63;45.14;95784.16;2068257;28;20190;-65
2022/02/14 02:24:27;;;;;;;3.65;2.10;;;;;;;4.59;45.11;95768.84;2065197;28;20239;-65
2022/02/14 02:25:29;;;;;;;6.30;2.00;;;;;;;4.72;44.96;95778.44;2069284;28;20198;-65
2022/02/14 02:26:30;;;;;;;4.82;1.88;;;;;;;4.61;45.31;95780.81;2068829;28;20205;-64
2022/02/14 02:27:32;;;;;;;5.10;1.90;;;;;;;4.67;44.32;95770.06;2067147;28;20194;-64
2022/02/14 02:28:34;;;;;;;3.67;1.80;;;;;;;4.67;44.71;95774.44;2068711;28;20555;-64
2022/02/14 02:29:39;;;;;;;3.70;1.80;;;;;;;4.60;44.84;95770.53;2067414;28;20236;-64
2022/02/14 02:30:41;;;;;;;4.90;2.33;;;;;;;4.61;44.75;95767.84;2064809;28;20213;-64
2022/02/14 02:31:42;;;;;;;5.65;2.65;;;;;;;4.55;44.29;95756.06;2066638;28;20716;-65
2022/02/14 02:32:45;;;;;;;4.15;1.92;;;;;;;4.60;44.48;95763.56;2068012;28;20195;-64
2022/02/14 02:33:46;;;;;;;4.20;1.65;;;;;;;4.62;44.63;95764.31;2066792;28;20560;-65
2022/02/14 02:34:48;;;;;;;2.83;2.00;;;;;;;4.54;44.96;95759.56;2070154;28;20206;-64
2022/02/14 02:35:49;;;;;;;2.58;1.45;;;;;;;4.47;44.45;95745.31;2069446;28;20555;-65
2022/02/14 02:36:56;;;;;;;5.50;1.92;;;;;;;4.59;44.44;95763.66;2070678;28;20675;-65
2022/02/14 02:37:58;;;;;;;4.70;2.17;;;;;;;4.52;44.59;95758.81;2066741;28;20199;-64
2022/02/14 02:38:59;;;;;;;4.68;2.20;;;;;;;4.62;44.03;95766.09;2065866;28;20195;-64
2022/02/14 02:40:01;;;;;;;5.50;2.38;;;;;;;4.53;43.96;95759.69;2066997;28;20242;-64
2022/02/14 02:41:02;;;;;;;4.68;1.95;;;;;;;4.56;43.66;95755.13;2066733;28;20206;-65
2022/02/14 02:42:05;;;;;;;3.50;1.77;;;;;;;4.58;44.04;95752.44;2067675;28;20286;-65
2022/02/14 02:43:06;;;;;;;3.38;1.88;;;;;;;4.58;44.04;95760.22;2067765;28;20565;-64
2022/02/14 02:44:08;;;;;;;5.35;2.03;;;;;;;4.44;44.47;95748.06;2067254;28;20234;-64
2022/02/14 02:45:10;;;;;;;3.38;1.60;;;;;;;4.58;43.88;95746.44;2064953;28;20198;-65
2022/02/14 02:46:11;;;;;;;8.93;1.80;;;;;;;4.51;43.96;95754.59;2075877;28;20623;-64
2022/02/14 02:47:17;;;;;;;3.08;1.90;;;;;;;4.47;43.82;95744.44;2066042;28;20576;-64
2022/02/14 02:48:18;;;;;;;2.75;1.40;;;;;;;4.26;44.31;95718.84;2066370;28;20205;-64
2022/02/14 02:49:22;;;;;;;4.97;1.70;;;;;;;4.36;44.42;95747.69;2067711;28;20218;-65
2022/02/14 02:50:23;;;;;;;4.93;1.50;;;;;;;4.37;44.41;95741.56;2066295;28;20197;-64
2022/02/14 02:51:25;;;;;;;3.25;2.08;;;;;;;4.40;44.20;95741.41;2066187;28;20206;-64
2022/02/14 02:52:26;;;;;;;3.33;1.92;;;;;;;4.36;44.25;95735.53;2065762;28;20195;-65
2022/02/14 02:53:32;;;;;;;6.00;1.52;;;;;;;4.23;44.15;95719.03;2065781;28;20202;-64
2022/02/14 02:54:35;;;;;;;4.00;1.70;;;;;;;4.34;44.21;95731.38;2066682;28;20229;-65
2022/02/14 02:55:37;;;;;;;8.27;1.90;;;;;;;4.13;44.28;95717.88;2066685;28;20553;-64
2022/02/14 02:56:41;;;;;;;4.13;1.65;;;;;;;4.09;44.21;95712.03;2064985;28;20194;-64
2022/02/14 02:57:42;;;;;;;6.90;2.58;;;;;;;4.17;44.93;95737.53;2065371;28;20205;-64
2022/02/14 02:58:44;;;;;;;2.97;1.85;;;;;;;4.00;45.21;95711.72;2065678;28;20209;-64
2022/02/14 02:59:46;;;;;;;3.95;1.60;;;;;;;4.03;44.62;95707.22;2069374;28;20261;-65
2022/02/14 03:00:47;;;;;;;1.75;1.27;;;;;;;4.18;44.76;95740.97;2067704;28;20201;-65
2022/02/14 03:01:49;;;;;;;4.60;1.90;;;;;;;4.18;44.37;95730.59;2068385;28;20222;-64
2022/02/14 03:02:51;;;;;;;8.07;2.65;;;;;;;4.22;44.13;95726.91;2068980;28;20206;-65
2022/02/14 03:03:53;;;;;;;8.07;1.35;;;;;;;4.22;44.13;95716.53;2069663;28;20198;-65
2022/02/14 03:04:54;;;;;;;2.88;1.90;;;;;;;4.25;43.84;95717.19;2070180;28;20641;-65
2022/02/14 03:05:56;;;;;;;3.80;1.50;;;;;;;4.31;43.83;95721.19;2069641;28;20210;-64
2022/02/14 03:06:58;;;;;;;2.60;1.95;;;;;;;4.18;44.46;95720.25;2068402;28;20205;-65
2022/02/14 03:07:59;;;;;;;3.88;1.60;;;;;;;4.17;44.04;95729.75;2068389;28;20201;-62
2022/02/14 03:09:02;;;;;;;6.95;1.52;;;;;;;4.09;44.24;95727.59;2067624;28;20206;-62
2022/02/14 03:10:04;;;;;;;3.67;2.30;;;;;;;4.14;44.27;95733.34;2068466;28;20502;-62
2022/02/14 03:11:05;;;;;;;4.47;1.70;;;;;;;4.14;44.24;95720.41;2068796;28;20202;-62
2022/02/14 03:12:07;;;;;;;1.75;1.50;;;;;;;4.20;44.14;95726.16;2069363;28;20198;-62
2022/02/14 03:13:09;;;;;;;4.32;2.00;;;;;;;4.13;44.55;95729.09;2070947;28;20190;-62
2022/02/14 03:14:13;;;;;;;2.25;1.60;;;;;;;4.09;44.39;95727.59;2066928;28;20218;-62
2022/02/14 03:15:14;;;;;;;6.22;1.88;;;;;;;4.07;44.40;95726.84;2068354;28;20226;-62
2022/02/14 03:16:17;;;;;;;3.05;1.80;;;;;;;3.91;44.67;95700.97;2069756;28;20197;-62
2022/02/14 03:17:20;;;;;;;4.88;2.08;;;;;;;4.11;44.80;95725.75;2068081;28;20202;-62
2022/02/14 03:18:23;;;;;;;3.50;1.80;;;;;;;4.04;44.43;95719.25;2067215;28;20202;-62
2022/02/14 03:19:24;;;;;;;3.08;1.70;;;;;;;4.10;44.73;95725.84;2065615;28;20221;-62
2022/02/14 03:20:26;;;;;;;3.85;2.10;;;;;;;4.12;44.77;95729.19;2066665;28;20194;-62
2022/02/14 03:21:28;;;;;;;5.70;2.13;;;;;;;3.98;45.19;95719.63;2062571;28;20198;-63
2022/02/14 03:22:30;;;;;;;3.05;2.13;;;;;;;3.97;44.90;95730.88;2066517;28;20206;-62
2022/02/14 03:23:31;;;;;;;5.28;2.38;;;;;;;4.03;45.08;95729.72;2070479;28;20209;-62
2022/02/14 03:24:33;;;;;;;3.17;1.63;;;;;;;4.05;44.83;95725.28;2069858;28;20711;-62
2022/02/14 03:25:34;;;;;;;3.15;2.28;;;;;;;3.94;45.40;95723.31;2067367;28;20206;-62
2022/02/14 03:26:36;;;;;;;2.75;1.67;;;;;;;3.74;46.04;95722.66;2067329;28;20202;-63
2022/02/14 03:27:38;;;;;;;6.70;1.88;;;;;;;3.92;45.04;95719.94;2067270;28;20652;-62
2022/02/14 03:28:39;;;;;;;4.35;1.73;;;;;;;4.05;44.78;95718.31;2067426;28;20734;-62
2022/02/14 03:29:41;;;;;;;3.78;1.73;;;;;;;4.00;44.67;95712.59;2063377;28;20587;-62
2022/02/14 03:30:42;;;;;;;2.35;1.70;;;;;;;3.96;44.97;95724.06;2068895;28;20249;-62
2022/02/14 03:31:44;;;;;;;4.20;1.95;;;;;;;3.60;45.30;95664.78;2068924;28;20197;-62
2022/02/14 03:32:46;;;;;;;5.90;2.22;;;;;;;3.98;45.44;95722.19;2067565;28;20201;-62
2022/02/14 03:33:49;;;;;;;4.70;1.85;;;;;;;3.91;45.45;95719.09;2070869;28;20194;-62
2022/02/14 03:34:50;;;;;;;6.47;1.95;;;;;;;4.00;44.88;95717.78;2070490;28;20209;-62
2022/02/14 03:35:52;;;;;;;5.50;2.05;;;;;;;4.01;45.03;95709.06;2069381;28;20202;-62
2022/02/14 03:36:54;;;;;;;3.53;1.67;;;;;;;3.88;45.41;95708.06;2065327;28;20203;-62
2022/02/14 03:37:56;;;;;;;3.47;1.98;;;;;;;3.79;45.69;95724.97;2066484;28;20202;-62
2022/02/14 03:38:58;;;;;;;3.25;1.85;;;;;;;3.80;45.64;95715.44;2058642;28;20687;-62
2022/02/14 03:39:59;;;;;;;6.15;1.70;;;;;;;3.82;45.80;95717.03;2065923;28;20206;-62
2022/02/14 03:41:00;;;;;;;2.80;2.10;;;;;;;3.84;45.60;95704.84;2069541;28;20202;-62
2022/02/14 03:42:02;;;;;;;5.53;3.35;;;;;;;3.67;46.37;95710.97;2066135;28;20195;-62
2022/02/14 03:43:06;;;;;;;6.32;2.15;;;;;;;3.61;46.01;95698.34;2071769;28;20201;-62
2022/02/14 03:44:08;;;;;;;5.15;2.17;;;;;;;3.81;45.80;95715.38;2065278;28;20218;-62
2022/02/14 03:45:09;;;;;;;3.47;1.70;;;;;;;3.97;45.41;95715.34;2067668;28;20622;-63
2022/02/14 03:46:11;;;;;;;4.25;2.10;;;;;;;3.87;45.94;95711.59;2067176;28;20199;-62
2022/02/14 03:47:13;;;;;;;4.32;1.98;;;;;;;3.79;45.89;95714.63;2067085;28;20669;-62
2022/02/14 03:48:14;;;;;;;2.95;1.65;;;;;;;3.78;45.91;95702.56;2067148;28;20229;-62
2022/02/14 03:49:16;;;;;;;2.78;2.00;;;;;;;3.75;46.19;95708.78;2066616;28;20218;-62
2022/02/14 03:50:18;;;;;;;2.95;1.85;;;;;;;3.72;46.30;95715.88;2066905;28;20198;-62
2022/02/14 03:51:19;;;;;;;2.58;1.90;;;;;;;3.72;46.08;95708.09;2066722;28;20194;-62
2022/02/14 03:52:20;;;;;;;5.93;2.10;;;;;;;3.67;46.52;95704.94;2064996;28;20264;-62
2022/02/14 03:53:24;;;;;;;6.82;2.15;;;;;;;3.62;46.58;95701.78;2066345;28;20197;-62
2022/02/14 03:54:25;;;;;;;3.85;2.10;;;;;;;3.59;46.56;95710.56;2067506;28;20221;-62
2022/02/14 03:55:27;;;;;;;3.05;1.77;;;;;;;3.64;46.11;95700.75;2065222;28;20219;-62
2022/02/14 03:56:28;;;;;;;4.40;1.98;;;;;;;3.73;46.39;95700.25;2065966;28;20201;-62
2022/02/14 03:57:30;;;;;;;3.67;1.58;;;;;;;3.67;45.97;95700.59;2064966;28;20199;-63
2022/02/14 03:58:34;;;;;;;2.30;1.35;;;;;;;3.64;46.10;95692.16;2062703;28;20195;-62
2022/02/14 03:59:36;;;;;;;3.03;1.73;;;;;;;3.62;46.43;95704.38;2067867;28;20229;-63
2022/02/14 04:00:39;;;;;;;1.85;1.33;;;;;;;3.60;45.88;95694.09;2064713;28;20664;-62
2022/02/14 04:01:46;;;;;;;4.93;1.52;;;;;;;3.65;45.90;95697.25;2063684;28;20281;-62
2022/02/14 04:02:48;;;;;;;3.97;1.33;;;;;;;3.67;46.01;95700.59;2066269;28;20888;-62
2022/02/14 04:03:49;;;;;;;3.45;1.52;;;;;;;3.69;45.99;95698.75;2067253;28;20214;-62
2022/02/14 04:04:51;;;;;;;6.90;2.15;;;;;;;3.61;46.02;95698.34;2067758;28;20203;-62
2022/02/14 04:05:52;;;;;;;7.82;1.83;;;;;;;3.66;45.76;95693.72;2067187;28;20640;-62
2022/02/14 04:06:54;;;;;;;3.30;1.80;;;;;;;3.62;45.61;95706.94;2068235;28;20209;-62
2022/02/14 04:07:58;;;;;;;2.67;1.27;;;;;;;3.57;45.94;95702.03;2067787;28;20209;-62
2022/02/14 04:08:59;;;;;;;3.13;1.50;;;;;;;3.52;46.24;95696.25;2065787;28;20665;-62
2022/02/14 04:10:02;;;;;;;4.47;1.90;;;;;;;3.67;45.26;95698.00;2067164;28;20204;-62
2022/02/14 04:11:03;;;;;;;3.33;1.67;;;;;;;3.54;46.20;95702.19;2069457;28;20201;-63
2022/02/14 04:12:05;;;;;;;5.35;2.00;;;;;;;3.46;46.13;95687.06;2065298;28;20333;-62
2022/02/14 04:13:08;;;;;;;3.35;2.10;;;;;;;3.59;45.25;95702.78;2066293;28;20565;-62
2022/02/14 04:14:10;;;;;;;3.70;1.70;;;;;;;3.59;45.20;95691.56;2066982;28;20226;-62
2022/02/14 04:15:12;;;;;;;2.38;1.73;;;;;;;3.70;44.86;95699.59;2065735;28;20204;-63
2022/02/14 04:16:13;;;;;;;4.00;1.70;;;;;;;3.73;44.56;95696.84;2062758;28;20558;-62
2022/02/14 04:17:15;;;;;;;4.55;1.50;;;;;;;3.59;44.51;95676.91;2068689;28;20199;-62
2022/02/14 04:18:16;;;;;;;8.35;2.00;;;;;;;3.62;45.13;95697.41;2069216;28;20558;-62
2022/02/14 04:19:18;;;;;;;4.32;1.80;;;;;;;3.55;45.44;95701.28;2068703;28;20221;-62
2022/02/14 04:20:19;;;;;;;4.10;1.70;;;;;;;3.61;45.02;95700.94;2068075;28;20560;-62
2022/02/14 04:21:21;;;;;;;3.03;2.00;;;;;;;3.60;44.96;95696.66;2066903;28;20202;-62
2022/02/14 04:22:23;;;;;;;2.55;1.65;;;;;;;3.53;44.62;95695.34;2066777;28;20253;-62
2022/02/14 04:23:25;;;;;;;3.80;1.63;;;;;;;3.61;44.09;95676.78;2067390;28;20675;-62
2022/02/14 04:24:26;;;;;;;3.67;1.88;;;;;;;3.65;43.98;95688.66;2063723;28;20233;-62
2022/02/14 04:25:27;;;;;;;4.63;2.28;;;;;;;3.62;44.49;95676.72;2067035;28;20205;-62
2022/02/14 04:26:29;;;;;;;5.57;2.25;;;;;;;3.64;44.50;95690.41;2067186;28;20194;-62
2022/02/14 04:27:31;;;;;;;4.22;1.67;;;;;;;3.64;43.81;95690.41;2070361;28;20202;-62
2022/02/14 04:28:33;;;;;;;2.80;1.80;;;;;;;3.63;44.48;95690.50;2064666;28;20214;-63
2022/02/14 04:29:35;;;;;;;2.35;1.55;;;;;;;3.54;44.04;95668.53;2063517;28;20222;-62
2022/02/14 04:30:37;;;;;;;2.33;1.63;;;;;;;3.31;44.45;95656.84;2067097;28;20198;-62
2022/02/14 04:31:38;;;;;;;3.05;1.65;;;;;;;3.63;43.52;95693.09;2064454;28;20660;-62
2022/02/14 04:32:42;;;;;;;3.15;2.00;;;;;;;3.63;44.00;95690.50;2065422;28;20201;-62
2022/02/14 04:33:43;;;;;;;2.38;1.45;;;;;;;3.65;43.62;95686.91;2066179;28;20597;-62
2022/02/14 04:34:45;;;;;;;4.40;1.83;;;;;;;3.50;44.10;95667.03;2066293;28;20237;-62
2022/02/14 04:35:46;;;;;;;1.90;1.52;;;;;;;3.39;43.98;95664.19;2065526;28;20206;-62
2022/02/14 04:36:49;;;;;;;3.88;1.52;;;;;;;3.43;44.47;95691.59;2069002;28;20582;-62
2022/02/14 04:37:52;;;;;;;2.20;1.40;;;;;;;3.45;44.75;95689.75;2066464;28;20198;-62
2022/02/14 04:38:54;;;;;;;2.97;1.65;;;;;;;3.35;44.71;95687.69;2063082;28;20225;-62
2022/02/14 04:39:55;;;;;;;3.20;1.48;;;;;;;3.53;44.23;95687.59;2065282;28;20199;-62
2022/02/14 04:40:56;;;;;;;1.70;1.40;;;;;;;3.38;44.39;95689.25;2067862;28;20205;-62
2022/02/14 04:41:58;;;;;;;7.38;1.70;;;;;;;3.47;43.95;95677.56;2066118;28;20218;-62
2022/02/14 04:43:00;;;;;;;4.18;1.80;;;;;;;3.49;43.99;95683.47;2064635;28;20210;-62
2022/02/14 04:44:01;;;;;;;2.20;1.50;;;;;;;3.44;44.25;95678.56;2065612;28;20217;-62
2022/02/14 04:45:03;;;;;;;2.55;1.70;;;;;;;3.44;44.31;95677.75;2066705;28;20201;-62
2022/02/14 04:46:04;;;;;;;2.75;1.80;;;;;;;3.37;44.48;95672.03;2068549;28;20205;-62
2022/02/14 04:47:06;;;;;;;3.25;1.67;;;;;;;3.42;44.41;95675.22;2064254;28;20690;-62
2022/02/14 04:48:09;;;;;;;2.95;1.50;;;;;;;3.46;43.86;95678.50;2067541;28;20193;-62
2022/02/14 04:49:12;;;;;;;3.67;1.50;;;;;;;3.48;44.14;95668.88;2066711;28;20222;-62
2022/02/14 04:50:13;;;;;;;5.82;1.90;;;;;;;3.34;44.21;95665.28;2060939;28;20201;-62
2022/02/14 04:51:14;;;;;;;4.10;1.40;;;;;;;3.28;44.28;95659.63;2062343;28;20214;-62
2022/02/14 04:52:16;;;;;;;2.97;1.67;;;;;;;3.13;44.33;95632.81;2064398;28;20199;-62
2022/02/14 04:53:17;;;;;;;7.53;1.70;;;;;;;3.36;44.55;95668.63;2065108;28;20199;-62
2022/02/14 04:54:19;;;;;;;1.77;1.27;;;;;;;3.36;44.00;95654.88;2068207;28;20252;-62
2022/02/14 04:55:21;;;;;;;3.92;1.55;;;;;;;3.33;44.49;95655.88;2067082;28;20632;-62
2022/02/14 04:56:23;;;;;;;3.45;1.63;;;;;;;3.36;44.81;95667.81;2064735;28;20198;-62